SBAN

Base Aérea Airport

Anápolis, Brazil
TAF SBAN 181000Z 1812/1824 04010KT 8000 NSC TX25/1818Z TN19/1823Z BECMG 1814/1816 BKN025 FEW030TCU PROB40 TEMPO 1818/1824 TSRA BKN020 FEW035CB BECMG 1819/1821 FEW035TCU RMK PDB
Issued Valid From Valid To
Nov-18 @ 10:00 UTC
(6 hours ago)
Nov-18 @ 12:00 UTC
(4 hours ago)
Nov-19 @ 00:00 UTC
(in 8 hours)
Expired Click to View Nov-18 @ 12:00 to Nov-18 @ 14:00
TAF SBAN 181000Z 1812/1824 04010KT 8000 NSC TX25/1818Z TN19/1823Z
Wind Visibility Clouds
40° at 10 knots 7,998 meters
  • No significant clouds
Becoming Nov-18 @ 14:00 to Nov-18 @ 19:00
BECMG 1814/1816 BKN025 FEW030TCU
Wind Visibility Clouds
40° at 10 knots 7,998 meters
  • Broken at 2,500' AGL
  • Few at 3,000' AGL
Temporary  (Probability 40%) Nov-18 @ 18:00 to Nov-19 @ 00:00
PROB40 TEMPO 1818/1824 TSRA BKN020 FEW035CB
Clouds Conditions
  • Broken at 2,000' AGL
  • Few at 3,500' AGL
  • Thunderstorm
  • Rain
Becoming Nov-18 @ 19:00 to Nov-19 @ 00:00
BECMG 1819/1821 FEW035TCU RMK PDB
Wind Visibility Clouds
40° at 10 knots 7,998 meters
  • Few at 3,500' AGL
TAF SBAN 181000Z 1812/1824 04010KT 8000 NSC TX25/1818Z TN19/1823Z BECMG 1814/1816 BKN025 FEW030TCU PROB40 TEMPO 1818/1824 TSRA BKN020 FEW035CB BECMG 1819/1821 FEW035TCU RMK PDB
Issued Nov-18 @ 10:00 UTC
(6 hours ago)
Valid From Nov-18 @ 12:00 UTC
(4 hours ago)
Valid To Nov-19 @ 00:00 UTC
(in 8 hours)
Nov-18 @ 12:00 - Nov-18 @ 14:00
Wind Visibility
40° at 10 knots 7,998 meters
Clouds
  • No significant clouds
Becoming Nov-18 @ 14:00 - Nov-18 @ 19:00
Wind Visibility
40° at 10 knots 7,998 meters
Clouds
  • Broken at 2,500' AGL
  • Few at 3,000' AGL
Probability 40% Temporary Nov-18 @ 18:00 - Nov-19 @ 00:00
Clouds
  • Broken at 2,000' AGL
  • Few at 3,500' AGL
Conditions
  • Thunderstorm
  • Rain
Becoming Nov-18 @ 19:00 - Nov-19 @ 00:00
Wind Visibility
40° at 10 knots 7,998 meters
Clouds
  • Few at 3,500' AGL